createdAt,value
2022-11-29T00:00:07.281Z,101016.01
2022-11-29T00:03:45.908Z,101011.48
2022-11-29T00:07:22.422Z,101015.45
2022-11-29T00:11:07.202Z,101014.26
2022-11-29T00:14:37.892Z,101013.98
2022-11-29T00:18:15.904Z,101011.52
2022-11-29T00:21:53.096Z,101012.64
2022-11-29T00:25:30.800Z,101006.94
2022-11-29T00:29:08.709Z,101009.23
2022-11-29T00:32:46.927Z,101008.59
2022-11-29T00:36:24.528Z,101008.59
2022-11-29T00:40:01.662Z,101001.48
2022-11-29T00:43:39.832Z,101005.75
2022-11-29T00:47:16.871Z,101008.27
2022-11-29T00:50:54.678Z,101006.69
2022-11-29T00:54:32.334Z,101003.81
2022-11-29T00:58:10.063Z,101001.73
2022-11-29T01:01:47.809Z,101003.73
2022-11-29T01:05:25.548Z,101004.60
2022-11-29T01:09:04.378Z,101003.95
2022-11-29T01:12:41.058Z,101000.19
2022-11-29T01:16:19.026Z,101002.36
2022-11-29T01:19:56.138Z,101004.73
2022-11-29T01:23:35.658Z,101002.48
2022-11-29T01:27:11.568Z,101000.89
2022-11-29T01:30:49.267Z,101000.46
2022-11-29T01:34:27.180Z,101002.11
2022-11-29T01:38:04.679Z,100999.42
2022-11-29T01:41:42.460Z,101001.23
2022-11-29T01:45:25.333Z,100998.21
2022-11-29T01:49:03.732Z,101000.27
2022-11-29T01:52:35.701Z,101005.95
2022-11-29T01:56:14.968Z,101001.72
2022-11-29T01:59:54.899Z,101003.35
2022-11-29T02:03:28.527Z,101004.92
2022-11-29T02:07:06.415Z,101001.49
2022-11-29T02:11:23.236Z,100998.20
2022-11-29T02:14:39.744Z,100993.92
2022-11-29T02:18:21.645Z,101000.85
2022-11-29T02:22:16.553Z,100996.02
2022-11-29T02:25:39.409Z,100998.41
2022-11-29T02:29:46.094Z,101001.76
2022-11-29T02:33:19.087Z,100997.47
2022-11-29T02:37:08.643Z,101000.98
2022-11-29T02:40:40.946Z,101004.35
2022-11-29T02:44:14.965Z,101002.64
2022-11-29T02:47:55.433Z,101009.78
2022-11-29T02:51:29.797Z,101014.70
2022-11-29T02:55:01.317Z,101016.41
2022-11-29T02:58:47.828Z,101014.74
2022-11-29T03:02:53.128Z,101019.08
2022-11-29T03:06:23.718Z,101019.13
2022-11-29T03:09:55.482Z,101024.52
2022-11-29T03:13:40.588Z,101025.73
2022-11-29T03:17:26.149Z,101028.75
2022-11-29T03:20:39.791Z,101024.30
2022-11-29T03:24:25.992Z,101022.98
2022-11-29T03:28:05.325Z,101022.58
2022-11-29T03:31:35.462Z,101026.85
2022-11-29T03:35:15.002Z,101028.75
2022-11-29T03:38:47.284Z,101032.20
2022-11-29T03:42:30.518Z,101033.41
2022-11-29T03:46:08.887Z,101032.93
2022-11-29T03:49:45.828Z,101035.56
2022-11-29T03:53:33.667Z,101037.03
2022-11-29T03:56:54.166Z,101040.55
2022-11-29T04:00:56.757Z,101043.08
2022-11-29T04:04:47.098Z,101039.71
2022-11-29T04:08:15.849Z,101043.70
2022-11-29T04:12:04.308Z,101048.80
2022-11-29T04:15:23.577Z,101050.71
2022-11-29T04:19:31.901Z,101054.46
2022-11-29T04:23:18.410Z,101053.08
2022-11-29T04:26:56.115Z,101055.69
2022-11-29T04:30:20.104Z,101055.42
2022-11-29T04:34:17.978Z,101062.59
2022-11-29T04:37:56.293Z,101064.52
2022-11-29T04:41:14.180Z,101065.65
2022-11-29T04:45:21.327Z,101066.63
2022-11-29T04:49:09.986Z,101068.12
2022-11-29T04:52:32.229Z,101067.60
2022-11-29T04:56:18.023Z,101070.58
2022-11-29T04:59:47.637Z,101072.92
2022-11-29T05:03:57.803Z,101073.09
2022-11-29T05:07:26.826Z,101078.81
2022-11-29T05:11:10.549Z,101080.45
2022-11-29T05:15:14.775Z,101080.95
2022-11-29T05:18:58.930Z,101083.68
2022-11-29T05:22:36.227Z,101084.08
2022-11-29T05:25:58.261Z,101087.79
2022-11-29T05:30:03.038Z,101096.52
2022-11-29T05:33:36.505Z,101096.89
2022-11-29T05:37:19.332Z,101097.50
2022-11-29T05:41:03.997Z,101099.77
2022-11-29T05:44:36.989Z,101103.91
2022-11-29T05:48:04.351Z,101107.71
2022-11-29T05:51:29.668Z,101113.05
2022-11-29T05:55:27.543Z,101117.00
2022-11-29T05:58:49.992Z,101118.08
2022-11-29T06:02:58.229Z,101124.29
2022-11-29T06:06:24.854Z,101127.08
2022-11-29T06:09:59.181Z,101130.36
2022-11-29T06:13:38.213Z,101133.27
2022-11-29T06:17:26.670Z,101133.30
2022-11-29T06:21:01.910Z,101140.20
2022-11-29T06:24:31.132Z,101148.59
2022-11-29T06:27:54.899Z,101152.45
2022-11-29T06:31:34.608Z,101158.30
2022-11-29T06:35:35.193Z,101162.79
2022-11-29T06:38:48.114Z,101168.98
2022-11-29T06:42:26.433Z,101170.23
2022-11-29T06:46:16.003Z,101167.75
2022-11-29T06:49:49.369Z,101168.34
2022-11-29T06:53:47.708Z,101171.70
2022-11-29T06:57:18.462Z,101175.45
2022-11-29T07:00:49.930Z,101178.11
2022-11-29T07:04:28.530Z,101179.73
2022-11-29T07:07:55.745Z,101179.29
2022-11-29T07:11:29.307Z,101182.17
2022-11-29T07:15:07.315Z,101183.73
2022-11-29T07:19:12.453Z,101188.89
2022-11-29T07:22:58.144Z,101186.88
2022-11-29T07:26:20.182Z,101191.57
2022-11-29T07:30:05.568Z,101191.42
2022-11-29T07:34:01.805Z,101191.78
2022-11-29T07:37:27.017Z,101194.39
2022-11-29T07:40:53.718Z,101190.61
2022-11-29T07:44:40.480Z,101198.14
2022-11-29T07:48:07.050Z,101204.41
2022-11-29T07:51:43.189Z,101211.45
2022-11-29T07:55:22.737Z,101209.37
2022-11-29T07:58:58.129Z,101210.17
2022-11-29T08:02:36.651Z,101210.11
2022-11-29T08:06:13.801Z,101211.42
2022-11-29T08:09:51.424Z,101213.90
2022-11-29T08:13:29.005Z,101214.80
2022-11-29T08:17:06.813Z,101217.22
2022-11-29T08:20:46.329Z,101215.83
2022-11-29T08:24:22.035Z,101215.55
2022-11-29T08:28:02.489Z,101220.73
2022-11-29T08:31:37.986Z,101218.40
2022-11-29T08:35:16.359Z,101222.27
2022-11-29T08:39:01.272Z,101224.12
2022-11-29T08:42:30.741Z,101223.95
2022-11-29T08:46:11.469Z,101227.33
2022-11-29T08:50:04.282Z,101223.34
2022-11-29T08:53:43.360Z,101228.89
2022-11-29T09:00:40.581Z,101228.77
2022-11-29T09:04:17.273Z,101230.64
2022-11-29T09:07:54.792Z,101229.55
2022-11-29T09:11:34.627Z,101232.45
2022-11-29T09:15:10.948Z,101237.41
2022-11-29T09:18:52.352Z,101238.98
2022-11-29T09:22:25.487Z,101238.95
2022-11-29T09:26:04.422Z,101237.11
2022-11-29T09:29:40.654Z,101240.91
2022-11-29T09:33:18.336Z,101247.20
2022-11-29T09:36:56.206Z,101246.42
2022-11-29T09:40:40.457Z,101246.38
2022-11-29T09:44:25.948Z,101254.27
2022-11-29T09:48:26.588Z,101251.25
2022-11-29T09:51:53.437Z,101247.23
2022-11-29T09:55:39.746Z,101247.22
2022-11-29T09:58:59.056Z,101243.59
2022-11-29T10:02:50.682Z,101243.02
2022-11-29T10:06:13.605Z,101246.27
2022-11-29T10:09:52.331Z,101244.59
2022-11-29T10:13:32.093Z,101243.72
2022-11-29T10:17:28.323Z,101244.67
2022-11-29T10:20:47.462Z,101251.17
2022-11-29T10:24:20.704Z,101250.41
2022-11-29T10:27:55.325Z,101248.50
2022-11-29T10:31:35.996Z,101246.83
2022-11-29T10:35:16.184Z,101245.75
2022-11-29T10:38:48.845Z,101246.58
2022-11-29T10:42:46.840Z,101249.38
2022-11-29T10:46:04.619Z,101253.63
2022-11-29T10:49:40.522Z,101252.95
2022-11-29T10:53:24.129Z,101260.17
2022-11-29T10:56:59.103Z,101256.51
2022-11-29T11:00:44.481Z,101250.79
2022-11-29T11:04:26.597Z,101252.86
2022-11-29T11:07:57.322Z,101253.91
2022-11-29T11:11:30.641Z,101255.00
2022-11-29T11:15:30.878Z,101253.66
2022-11-29T11:18:44.717Z,101257.27
2022-11-29T11:22:23.887Z,101258.27
2022-11-29T11:26:02.343Z,101256.42
2022-11-29T11:29:42.660Z,101257.05
2022-11-29T11:33:26.390Z,101257.78
2022-11-29T11:36:53.751Z,101261.68
2022-11-29T11:40:30.924Z,101262.74
2022-11-29T11:44:45.912Z,101265.84
2022-11-29T11:47:53.520Z,101263.05
2022-11-29T11:51:30.814Z,101265.04
2022-11-29T11:55:36.576Z,101266.84
2022-11-29T11:58:54.955Z,101266.48
2022-11-29T12:02:33.974Z,101271.52
2022-11-29T12:06:24.261Z,101272.63
2022-11-29T12:09:55.927Z,101277.30
2022-11-29T12:13:24.922Z,101277.65
2022-11-29T12:17:05.290Z,101274.48
2022-11-29T12:20:51.906Z,101274.19
2022-11-29T12:24:28.083Z,101278.36
2022-11-29T12:27:50.824Z,101276.17
2022-11-29T12:31:29.192Z,101279.86
2022-11-29T12:35:41.767Z,101285.29
2022-11-29T12:39:03.396Z,101288.70
2022-11-29T12:42:48.723Z,101288.52
2022-11-29T12:46:19.803Z,101287.10
2022-11-29T12:50:02.343Z,101293.76
2022-11-29T12:53:52.334Z,101294.66
2022-11-29T12:57:08.258Z,101289.06
2022-11-29T13:00:53.866Z,101293.06
2022-11-29T13:04:56.477Z,101295.58
2022-11-29T13:08:25.100Z,101297.02
2022-11-29T13:12:00.855Z,101301.23
2022-11-29T13:15:46.961Z,101309.90
2022-11-29T13:19:18.855Z,101304.34
2022-11-29T13:23:39.076Z,101308.98
2022-11-29T13:26:52.562Z,101303.70
2022-11-29T13:30:29.381Z,101316.35
2022-11-29T13:34:21.385Z,101317.39
2022-11-29T13:38:20.496Z,101327.23
2022-11-29T13:41:57.096Z,101330.19
2022-11-29T13:45:27.199Z,101330.40
2022-11-29T13:48:49.562Z,101336.24
2022-11-29T13:53:15.610Z,101336.48
2022-11-29T13:56:47.954Z,101340.70
2022-11-29T14:00:06.518Z,101341.65
2022-11-29T14:03:49.252Z,101344.79
2022-11-29T14:07:20.551Z,101346.23
2022-11-29T14:11:04.129Z,101345.98
2022-11-29T14:14:52.379Z,101347.50
2022-11-29T14:18:40.633Z,101351.95
2022-11-29T14:22:07.192Z,101351.77
2022-11-29T14:29:45.422Z,101356.83
2022-11-29T14:33:05.412Z,101363.43
2022-11-29T14:36:50.385Z,101364.48
2022-11-29T14:40:31.680Z,101361.60
2022-11-29T14:43:49.633Z,101363.76
2022-11-29T14:47:38.567Z,101361.88
2022-11-29T14:51:25.702Z,101366.83
2022-11-29T14:55:02.653Z,101363.95
2022-11-29T14:58:21.554Z,101367.48
2022-11-29T15:02:37.703Z,101373.08
2022-11-29T15:05:55.513Z,101374.85
2022-11-29T15:09:27.774Z,101376.89
2022-11-29T15:13:08.099Z,101377.86
2022-11-29T15:16:57.927Z,101378.41
2022-11-29T15:20:35.732Z,101379.96
2022-11-29T15:24:11.917Z,101381.70
2022-11-29T15:27:38.806Z,101382.59
2022-11-29T15:31:19.976Z,101385.56
2022-11-29T15:34:53.544Z,101384.98
2022-11-29T15:38:28.621Z,101384.11
2022-11-29T15:42:18.434Z,101383.72
2022-11-29T15:45:52.556Z,101384.70
2022-11-29T15:49:28.631Z,101386.71
2022-11-29T15:53:05.227Z,101389.09
2022-11-29T15:56:49.301Z,101392.58
2022-11-29T16:00:20.473Z,101395.28
2022-11-29T16:03:55.217Z,101393.86
2022-11-29T16:07:32.708Z,101395.20
2022-11-29T16:11:17.176Z,101395.38
2022-11-29T16:14:52.695Z,101394.29
2022-11-29T16:18:23.947Z,101394.56
2022-11-29T16:22:13.296Z,101400.79
2022-11-29T16:26:13.558Z,101401.73
2022-11-29T16:29:38.416Z,101405.92
2022-11-29T16:33:03.631Z,101415.71
2022-11-29T16:36:39.533Z,101414.45
2022-11-29T16:40:27.476Z,101415.86
2022-11-29T16:43:56.271Z,101419.23
2022-11-29T16:47:58.167Z,101421.34
2022-11-29T16:51:10.351Z,101427.36
2022-11-29T16:54:49.385Z,101428.70
2022-11-29T16:58:25.654Z,101430.56
2022-11-29T17:02:03.424Z,101430.43
2022-11-29T17:05:44.679Z,101435.34
2022-11-29T17:09:33.311Z,101435.11
2022-11-29T17:13:01.615Z,101438.39
2022-11-29T17:16:34.229Z,101440.64
2022-11-29T17:20:13.005Z,101437.78
2022-11-29T17:23:50.506Z,101443.80
2022-11-29T17:27:27.083Z,101443.13
2022-11-29T17:31:24.717Z,101443.80
2022-11-29T17:35:07.992Z,101452.23
2022-11-29T17:38:20.298Z,101453.45
2022-11-29T17:42:01.383Z,101455.21
2022-11-29T17:45:41.293Z,101455.58
2022-11-29T17:49:13.418Z,101455.55
2022-11-29T17:52:51.627Z,101454.67
2022-11-29T17:56:52.580Z,101456.45
2022-11-29T18:00:29.563Z,101457.49
2022-11-29T18:04:08.534Z,101457.33
2022-11-29T18:08:00.083Z,101460.06
2022-11-29T18:11:28.513Z,101461.38
2022-11-29T18:15:00.585Z,101464.32
2022-11-29T18:18:39.735Z,101467.18
2022-11-29T18:22:19.731Z,101466.70
2022-11-29T18:25:59.380Z,101472.12
2022-11-29T18:29:38.921Z,101476.09
2022-11-29T18:33:09.003Z,101473.17
2022-11-29T18:36:48.691Z,101478.69
2022-11-29T18:40:24.209Z,101474.68
2022-11-29T18:44:07.657Z,101478.56
2022-11-29T18:47:42.055Z,101481.36
2022-11-29T18:51:19.880Z,101480.65
2022-11-29T18:54:56.834Z,101485.00
2022-11-29T18:58:33.981Z,101486.92
2022-11-29T19:02:12.747Z,101484.98
2022-11-29T19:05:54.116Z,101483.17
2022-11-29T19:09:26.046Z,101489.35
2022-11-29T19:13:03.546Z,101483.55
2022-11-29T19:16:44.616Z,101485.00
2022-11-29T19:20:18.957Z,101488.48
2022-11-29T19:24:00.945Z,101495.42
2022-11-29T19:27:34.361Z,101496.78
2022-11-29T19:31:14.663Z,101498.42
2022-11-29T19:34:49.885Z,101497.45
2022-11-29T19:38:27.876Z,101503.72
2022-11-29T19:42:05.382Z,101502.64
2022-11-29T19:45:43.014Z,101500.16
2022-11-29T19:49:20.622Z,101503.45
2022-11-29T19:52:59.519Z,101502.27
2022-11-29T19:56:36.301Z,101505.85
2022-11-29T20:00:14.723Z,101506.41
2022-11-29T20:03:52.748Z,101509.68
2022-11-29T20:07:29.473Z,101512.45
2022-11-29T20:11:09.697Z,101509.77
2022-11-29T20:14:44.516Z,101509.14
2022-11-29T20:18:22.220Z,101509.11
2022-11-29T20:21:59.825Z,101513.30
2022-11-29T20:25:37.627Z,101517.23
2022-11-29T20:29:16.601Z,101520.63
2022-11-29T20:33:03.406Z,101523.77
2022-11-29T20:37:56.662Z,101527.54
2022-11-29T20:41:24.809Z,101521.52
2022-11-29T20:45:09.912Z,101521.23
2022-11-29T20:48:38.878Z,101518.23
2022-11-29T20:52:38.223Z,101518.80
2022-11-29T20:55:53.882Z,101527.11
2022-11-29T20:59:31.513Z,101524.31
2022-11-29T21:03:15.971Z,101527.49
2022-11-29T21:06:46.921Z,101518.59
2022-11-29T21:10:24.728Z,101519.52
2022-11-29T21:14:04.530Z,101525.05
2022-11-29T21:17:41.058Z,101529.60
2022-11-29T21:21:38.186Z,101531.58
2022-11-29T21:25:55.347Z,101537.36
2022-11-29T21:29:16.102Z,101537.99
2022-11-29T21:32:43.517Z,101540.30
2022-11-29T21:36:21.553Z,101544.77
2022-11-29T21:39:58.170Z,101543.52
2022-11-29T21:44:04.791Z,101545.14
2022-11-29T21:47:14.130Z,101547.36
2022-11-29T21:50:51.628Z,101548.42
2022-11-29T21:54:29.847Z,101546.89
2022-11-29T21:58:06.934Z,101551.98
2022-11-29T22:01:44.653Z,101548.54
2022-11-29T22:05:22.240Z,101551.17
2022-11-29T22:09:00.352Z,101554.66
2022-11-29T22:12:38.934Z,101547.41
2022-11-29T22:16:16.861Z,101554.22
2022-11-29T22:19:53.909Z,101551.76
2022-11-29T22:23:31.689Z,101550.52
2022-11-29T22:27:08.668Z,101549.81
2022-11-29T22:30:46.626Z,101546.39
2022-11-29T22:34:27.661Z,101548.71
2022-11-29T22:38:01.483Z,101546.48
2022-11-29T22:41:40.428Z,101540.45
2022-11-29T22:45:16.985Z,101544.52
2022-11-29T22:48:56.945Z,101546.38
2022-11-29T22:52:32.292Z,101546.91
2022-11-29T22:56:11.675Z,101544.81
2022-11-29T22:59:47.666Z,101547.17
2022-11-29T23:03:25.631Z,101549.73
2022-11-29T23:07:03.108Z,101545.70
2022-11-29T23:10:40.732Z,101548.14
2022-11-29T23:14:19.408Z,101547.61
2022-11-29T23:17:56.323Z,101549.25
2022-11-29T23:21:36.278Z,101546.73
2022-11-29T23:25:11.730Z,101549.77
2022-11-29T23:28:50.459Z,101546.19
2022-11-29T23:32:27.037Z,101550.81
2022-11-29T23:36:07.608Z,101552.85
2022-11-29T23:39:42.547Z,101555.95
2022-11-29T23:43:21.890Z,101555.69
2022-11-29T23:46:57.699Z,101558.70
2022-11-29T23:50:35.659Z,101559.08
2022-11-29T23:54:13.265Z,101553.17
2022-11-29T23:57:51.477Z,101548.96
